Time;durP1;ratioP1;P1;durP2;ratioP2;P2;SDS_P1;SDS_P2;PMS_P1;PMS_P2;Temp;Humidity;BMP_temperature;BMP_pressure;BME280_temperature;BME280_humidity;BME280_pressure;Samples;Min_cycle;Max_cycle;Signal;HPM_P1;HPM_P2
2023/05/10 00:02:26;;;;;;;4.90;4.50;;;;;;;;;;4897687;29;20036;-70
2023/05/10 00:04:52;;;;;;;6.43;5.82;;;;;;;;;;4892429;29;20099;-70
2023/05/10 00:07:18;;;;;;;7.03;5.78;;;;;;;;;;4871888;29;20036;-70
2023/05/10 00:09:44;;;;;;;6.70;6.00;;;;;;;;;;4893321;29;20044;-70
2023/05/10 00:12:11;;;;;;;7.57;6.18;;;;;;;;;;4882711;29;20040;-70
2023/05/10 00:14:37;;;;;;;6.93;6.22;;;;;;;;;;4882483;29;20046;-71
2023/05/10 00:17:03;;;;;;;7.13;6.50;;;;;;;;;;4892614;29;20045;-70
2023/05/10 00:19:29;;;;;;;7.68;6.82;;;;;;;;;;4874914;29;20080;-70
2023/05/10 00:21:55;;;;;;;7.70;6.40;;;;;;;;;;4899104;29;20051;-70
2023/05/10 00:24:21;;;;;;;7.00;6.30;;;;;;;;;;4904840;29;20529;-70
2023/05/10 00:26:47;;;;;;;6.13;5.53;;;;;;;;;;4882486;29;20067;-71
2023/05/10 00:29:13;;;;;;;6.20;5.40;;;;;;;;;;4883216;29;20051;-70
2023/05/10 00:31:39;;;;;;;5.80;5.20;;;;;;;;;;4890499;29;20043;-70
2023/05/10 00:34:05;;;;;;;6.07;5.53;;;;;;;;;;4900091;29;20044;-70
2023/05/10 00:36:32;;;;;;;5.97;5.38;;;;;;;;;;4888386;29;20048;-70
2023/05/10 00:38:58;;;;;;;5.05;4.63;;;;;;;;;;4897668;29;20454;-70
2023/05/10 00:41:24;;;;;;;5.10;3.97;;;;;;;;;;4898680;29;20134;-70
2023/05/10 00:43:50;;;;;;;4.43;4.00;;;;;;;;;;4897455;29;20045;-70
2023/05/10 00:46:16;;;;;;;4.20;3.80;;;;;;;;;;4892779;29;20048;-70
2023/05/10 00:48:44;;;;;;;3.42;3.13;;;12.60;99.90;;;;;;4893425;29;20492;-68
2023/05/10 00:51:10;;;;;;;3.88;3.47;;;;;;;;;;4882863;29;20048;-69
2023/05/10 00:53:36;;;;;;;4.57;4.07;;;;;;;;;;4894221;29;20380;-69
2023/05/10 00:56:03;;;;;;;7.68;5.72;;;;;;;;;;4898337;29;20082;-71
2023/05/10 00:58:30;;;;;;;11.52;7.43;;;;;;;;;;4872068;29;20044;-69
2023/05/10 01:00:57;;;;;;;12.73;7.88;;;;;;;;;;4884984;29;20504;-69
2023/05/10 01:03:23;;;;;;;15.70;10.15;;;;;;;;;;4898469;29;20425;-69
2023/05/10 01:05:49;;;;;;;16.35;11.25;;;;;;;;;;4858772;29;20136;-69
2023/05/10 01:08:16;;;;;;;16.67;10.10;;;;;;;;;;4894369;29;20040;-69
2023/05/10 01:10:43;;;;;;;18.85;11.27;;;12.50;99.90;;;;;;4882776;29;20068;-69
2023/05/10 01:13:09;;;;;;;17.63;12.18;;;;;;;;;;4875341;29;20052;-69
2023/05/10 01:15:36;;;;;;;19.58;11.77;;;;;;;;;;4898649;29;20451;-69
2023/05/10 01:18:02;;;;;;;18.90;10.75;;;;;;;;;;4905895;29;20058;-69
2023/05/10 01:20:37;;;;;;;21.73;12.25;;;12.40;99.90;;;;;;4881346;29;20519;-69
2023/05/10 01:23:12;;;;;;;18.48;12.57;;;12.40;99.90;;;;;;4882590;29;20041;-71
2023/05/10 01:26:10;;;;;;;20.40;12.77;;;12.30;99.90;;;;;;4870319;29;20510;-71
2023/05/10 01:29:13;;;;;;;24.92;12.20;;;12.40;99.90;;;;;;4854617;29;20040;-72
2023/05/10 01:31:58;;;;;;;20.10;10.75;;;;;;;;;;4882880;29;20071;-72
2023/05/10 01:34:28;;;;;;;25.20;12.82;;;;;;;;;;4886281;29;20040;-72
2023/05/10 01:37:09;;;;;;;24.35;13.18;;;12.30;99.90;;;;;;4906505;29;20049;-72
2023/05/10 01:39:47;;;;;;;26.30;13.77;;;;;;;;;;4886704;29;20123;-72
2023/05/10 01:42:26;;;;;;;25.05;11.27;;;12.30;99.90;;;;;;4897915;29;20068;-72
2023/05/10 01:44:58;;;;;;;26.42;12.55;;;;;;;;;;4896859;29;20048;-72
2023/05/10 01:47:29;;;;;;;28.40;13.25;;;11.40;99.90;;;;;;4882649;29;20044;-73
2023/05/10 01:49:56;;;;;;;26.95;12.98;;;;;;;;;;4882326;29;20146;-68
2023/05/10 01:52:36;;;;;;;25.65;12.30;;;12.30;99.90;;;;;;4881895;29;20457;-69
2023/05/10 01:55:04;;;;;;;22.25;11.75;;;;;;;;;;4882191;29;20051;-68
2023/05/10 01:57:34;;;;;;;17.88;11.57;;;12.50;99.90;;;;;;4885447;29;20044;-69
2023/05/10 02:00:03;;;;;;;17.42;12.43;;;12.60;99.90;;;;;;4888233;29;20041;-68
2023/05/10 02:02:33;;;;;;;16.92;12.35;;;12.20;99.90;;;;;;4914892;29;20036;-68
2023/05/10 02:05:00;;;;;;;18.80;13.10;;;;;;;;;;4899746;29;20049;-69
2023/05/10 02:07:28;;;;;;;17.45;12.55;;;12.50;99.90;;;;;;4881020;29;20066;-69
2023/05/10 02:09:55;;;;;;;19.17;13.80;;;12.50;99.90;;;;;;4892681;29;20062;-69
2023/05/10 02:12:23;;;;;;;13.40;10.85;;;12.40;99.90;;;;;;4914450;29;20040;-69
2023/05/10 02:14:50;;;;;;;13.00;10.32;;;;;;;;;;4887820;29;20079;-68
2023/05/10 02:17:17;;;;;;;10.77;8.63;;;;;;;;;;4880879;29;20044;-69
2023/05/10 02:19:45;;;;;;;9.75;7.72;;;12.50;99.90;;;;;;4882949;29;20075;-68
2023/05/10 02:22:12;;;;;;;10.13;7.68;;;;;;;;;;4883078;29;20040;-69
2023/05/10 02:24:39;;;;;;;7.57;6.80;;;12.30;99.90;;;;;;4896938;29;20393;-69
2023/05/10 02:27:06;;;;;;;6.63;5.90;;;12.20;99.90;;;;;;4875879;29;20049;-69
2023/05/10 02:29:33;;;;;;;5.53;4.90;;;;;;;;;;4868987;29;20048;-68
2023/05/10 02:32:00;;;;;;;6.07;5.20;;;12.40;99.90;;;;;;4907561;29;20564;-69
2023/05/10 02:34:27;;;;;;;4.30;3.90;;;12.50;99.90;;;;;;4885522;29;20045;-69
2023/05/10 02:36:54;;;;;;;3.70;3.35;;;12.30;99.90;;;;;;4884310;29;20629;-69
2023/05/10 02:39:21;;;;;;;3.40;3.08;;;;;;;;;;4888605;29;20093;-69
2023/05/10 02:41:48;;;;;;;4.57;2.60;;;12.40;99.90;;;;;;4899455;29;20091;-69
2023/05/10 02:44:16;;;;;;;2.40;2.20;;;12.40;99.90;;;;;;4899797;29;20135;-69
2023/05/10 02:46:43;;;;;;;2.92;2.72;;;;;;;;;;4898373;29;20370;-69
2023/05/10 02:49:09;;;;;;;2.83;2.60;;;;;;;;;;4901073;29;20119;-69
2023/05/10 02:51:37;;;;;;;2.25;1.77;;;;;;;;;;4900543;29;20044;-69
2023/05/10 02:54:07;;;;;;;1.92;1.83;;;;;;;;;;4885585;29;20496;-69
2023/05/10 02:56:35;;;;;;;3.05;1.80;;;12.30;99.90;;;;;;4886088;29;20048;-69
2023/05/10 02:59:01;;;;;;;1.70;1.60;;;;;;;;;;4900997;29;20096;-69
2023/05/10 03:01:28;;;;;;;1.85;1.75;;;;;;;;;;4900872;29;20096;-69
2023/05/10 03:03:54;;;;;;;1.83;1.70;;;;;;;;;;4885670;29;20040;-69
2023/05/10 03:06:20;;;;;;;2.10;1.98;;;;;;;;;;4900672;29;20044;-69
2023/05/10 03:08:45;;;;;;;1.60;1.50;;;12.90;99.90;;;;;;4900635;29;20047;-70
2023/05/10 03:11:11;;;;;;;1.70;1.60;;;;;;;;;;4883433;29;20051;-69
2023/05/10 03:13:56;;;;;;;1.50;1.40;;;12.10;99.90;;;;;;4900150;29;20078;-69
2023/05/10 03:16:40;;;;;;;1.70;1.60;;;12.30;99.90;;;;;;4866247;29;20080;-69
2023/05/10 03:19:14;;;;;;;1.70;1.60;;;12.10;99.90;;;;;;4900328;29;20123;-71
2023/05/10 03:21:44;;;;;;;1.90;1.80;;;12.20;99.90;;;;;;4872002;29;20048;-70
2023/05/10 03:24:13;;;;;;;1.60;1.50;;;;;;;;;;4917303;29;20048;-70
2023/05/10 03:26:39;;;;;;;2.22;1.67;;;;;;;;;;4900257;29;20052;-70
2023/05/10 03:29:06;;;;;;;1.80;1.70;;;;;;;;;;4900355;29;20067;-70
2023/05/10 03:31:32;;;;;;;2.47;2.28;;;;;;;;;;4885956;29;20050;-69
2023/05/10 03:33:58;;;;;;;2.03;1.92;;;;;;;;;;4899169;29;20386;-69
2023/05/10 03:36:24;;;;;;;2.60;2.40;;;;;;;;;;4900401;29;20079;-70
2023/05/10 03:38:51;;;;;;;3.05;2.47;;;;;;;;;;4887211;29;20037;-69
2023/05/10 03:41:17;;;;;;;3.13;2.90;;;;;;;;;;4890632;29;20052;-70
2023/05/10 03:43:43;;;;;;;3.30;3.00;;;;;;;;;;4883397;29;20127;-70
2023/05/10 03:46:09;;;;;;;3.78;3.47;;;;;;;;;;4899808;29;20048;-70
2023/05/10 03:48:35;;;;;;;4.57;3.95;;;;;;;;;;4884250;29;20048;-70
2023/05/10 03:51:01;;;;;;;4.60;4.03;;;;;;;;;;4894203;29;20048;-70
2023/05/10 03:53:28;;;;;;;5.35;4.45;;;;;;;;;;4899516;29;20138;-70
2023/05/10 03:55:54;;;;;;;5.03;4.53;;;;;;;;;;4893509;29;20515;-70
2023/05/10 04:06:34;;;;;;;5.13;4.60;;;;;;;;;;5694046;23;20133;-69
2023/05/10 04:09:03;;;;;;;4.82;4.00;;;;;;;;;;4921599;29;20048;-71
2023/05/10 04:11:29;;;;;;;3.17;2.88;;;;;;;;;;4917041;29;20086;-71
2023/05/10 04:13:55;;;;;;;2.53;2.30;;;;;;;;;;4900210;29;20051;-71
2023/05/10 04:16:21;;;;;;;2.10;2.00;;;;;;;;;;4899964;29;20087;-71
2023/05/10 04:18:48;;;;;;;2.00;1.90;;;;;;;;;;4899868;29;20405;-71
2023/05/10 04:21:14;;;;;;;1.88;1.75;;;;;;;;;;4884707;29;20055;-71
2023/05/10 04:23:41;;;;;;;1.70;1.60;;;;;;;;;;4899980;29;20040;-66
2023/05/10 04:26:07;;;;;;;1.70;1.50;;;;;;;;;;4894160;29;20044;-66
2023/05/10 04:28:33;;;;;;;1.70;1.60;;;;;;;;;;4900069;29;20051;-66
2023/05/10 04:31:03;;;;;;;3.25;1.63;;;12.00;99.90;;;;;;4916799;29;20448;-66
2023/05/10 04:33:29;;;;;;;1.90;1.80;;;;;;;;;;4899991;29;20500;-66
2023/05/10 04:35:56;;;;;;;3.05;1.80;;;;;;;;;;4899658;29;20415;-66
2023/05/10 04:38:22;;;;;;;2.20;2.00;;;;;;;;;;4900109;29;20127;-66
2023/05/10 04:40:48;;;;;;;2.00;1.90;;;;;;;;;;4899756;29;20107;-67
2023/05/10 04:43:14;;;;;;;2.50;2.30;;;;;;;;;;4899903;29;20047;-67
2023/05/10 04:45:40;;;;;;;2.13;2.03;;;;;;;;;;4883696;29;20095;-67
2023/05/10 04:48:07;;;;;;;2.63;2.42;;;;;;;;;;4899651;29;20044;-71
2023/05/10 04:50:33;;;;;;;2.72;2.45;;;;;;;;;;4906521;29;20046;-66
2023/05/10 04:52:59;;;;;;;3.25;2.95;;;;;;;;;;4899298;29;20044;-66
2023/05/10 04:55:26;;;;;;;3.50;3.20;;;;;;;;;;4899703;29;20065;-67
2023/05/10 04:57:52;;;;;;;4.68;4.20;;;;;;;;;;4886760;29;20036;-66
2023/05/10 05:00:19;;;;;;;5.53;4.43;;;13.10;99.90;;;;;;4895957;29;20047;-65
2023/05/10 05:02:45;;;;;;;6.55;5.95;;;;;;;;;;4898784;29;20044;-66
2023/05/10 05:05:12;;;;;;;11.07;6.72;;;;;;;;;;4899171;29;20091;-66
2023/05/10 05:07:38;;;;;;;8.63;7.40;;;;;;;;;;4883219;29;20063;-70
2023/05/10 05:10:06;;;;;;;8.02;6.78;;;12.10;99.90;;;;;;4899257;29;20048;-70
2023/05/10 05:12:32;;;;;;;7.88;7.07;;;;;;;;;;4898879;29;20044;-70
2023/05/10 05:14:58;;;;;;;7.70;6.90;;;;;;;;;;4898420;29;20048;-71
2023/05/10 05:17:24;;;;;;;8.13;6.93;;;;;;;;;;4881703;29;20044;-71
2023/05/10 05:19:50;;;;;;;7.78;6.53;;;;;;;;;;4897266;29;20130;-71
2023/05/10 05:22:16;;;;;;;6.88;6.15;;;;;;;;;;4899644;29;20055;-70
2023/05/10 05:24:42;;;;;;;9.57;6.45;;;;;;;;;;4913294;29;20100;-70
2023/05/10 05:27:08;;;;;;;6.65;5.47;;;;;;;;;;4899653;29;20040;-71
2023/05/10 05:29:34;;;;;;;6.68;5.80;;;;;;;;;;4899963;29;20088;-70
2023/05/10 05:32:00;;;;;;;6.00;5.40;;;;;;;;;;4916783;29;20556;-71
2023/05/10 05:34:27;;;;;;;5.28;4.63;;;;;;;;;;4899918;29;20043;-70
2023/05/10 05:36:53;;;;;;;5.38;4.50;;;;;;;;;;4899769;29;20415;-71
2023/05/10 05:39:19;;;;;;;5.68;4.38;;;;;;;;;;4899977;29;20052;-71
2023/05/10 05:41:46;;;;;;;6.70;4.20;;;12.90;99.90;;;;;;4900122;29;20071;-70
2023/05/10 05:44:12;;;;;;;6.30;3.83;;;;;;;;;;4915557;29;20107;-70
2023/05/10 05:46:38;;;;;;;5.68;4.00;;;;;;;;;;4899604;29;20040;-70
2023/05/10 05:49:05;;;;;;;3.80;3.40;;;;;;;;;;4896465;29;20448;-70
2023/05/10 05:51:31;;;;;;;4.32;3.30;;;;;;;;;;4900780;29;20960;-71
2023/05/10 05:53:57;;;;;;;4.95;3.38;;;;;;;;;;4900083;29;20474;-70
2023/05/10 05:56:26;;;;;;;4.85;3.22;;;;;;;;;;4899643;29;20131;-71
2023/05/10 05:58:52;;;;;;;4.82;3.20;;;12.70;99.90;;;;;;4903507;29;20044;-71
2023/05/10 06:01:18;;;;;;;5.00;2.97;;;;;;;;;;4903644;29;20051;-70
2023/05/10 06:03:44;;;;;;;3.45;3.13;;;;;;;;;;4888162;29;20040;-70
2023/05/10 06:06:11;;;;;;;4.32;3.05;;;;;;;;;;4903407;29;20063;-70
2023/05/10 06:08:37;;;;;;;4.47;3.42;;;;;;;;;;4902686;29;20094;-70
2023/05/10 06:11:03;;;;;;;4.68;3.55;;;;;;;;;;4903126;29;20122;-71
2023/05/10 06:13:32;;;;;;;3.80;3.17;;;;;;;;;;4903222;29;20055;-71
2023/05/10 06:16:01;;;;;;;3.08;2.78;;;12.40;99.90;;;;;;4919239;29;20044;-71
2023/05/10 06:18:27;;;;;;;4.25;2.60;;;;;;;;;;4887334;29;20103;-71
2023/05/10 06:20:53;;;;;;;4.10;2.63;;;;;;;;;;4902623;29;20122;-71
2023/05/10 06:23:20;;;;;;;3.42;2.65;;;;;;;;;;4887149;29;20526;-71
2023/05/10 06:25:46;;;;;;;3.65;2.60;;;;;;;;;;4902855;29;20078;-71
2023/05/10 06:28:12;;;;;;;2.97;2.67;;;;;;;;;;4902836;29;20047;-71
2023/05/10 06:30:38;;;;;;;3.08;2.35;;;;;;;;;;4902383;29;20521;-71
2023/05/10 06:33:04;;;;;;;3.22;2.40;;;;;;;;;;4901523;29;20094;-72
2023/05/10 06:35:33;;;;;;;3.38;2.60;;;;;;;;;;4893566;29;20048;-72
2023/05/10 06:37:59;;;;;;;3.00;2.60;;;;;;;;;;4882687;29;20045;-67
2023/05/10 06:40:25;;;;;;;3.92;3.20;;;;;;;;;;4917551;29;20040;-72
2023/05/10 06:42:51;;;;;;;3.53;2.80;;;;;;;;;;4888039;29;20092;-71
2023/05/10 06:45:18;;;;;;;3.75;3.03;;;;;;;;;;4910947;29;20119;-72
2023/05/10 06:47:44;;;;;;;3.63;2.95;;;;;;;;;;4902728;29;20044;-71
2023/05/10 06:50:11;;;;;;;4.20;3.33;;;;;;;;;;4887060;29;20048;-74
2023/05/10 06:52:37;;;;;;;4.25;3.17;;;;;;;;;;4919339;29;20040;-71
2023/05/10 06:55:04;;;;;;;7.20;3.17;;;;;;;;;;4902886;29;20437;-71
2023/05/10 06:57:30;;;;;;;6.38;3.17;;;;;;;;;;4923869;29;20043;-72
2023/05/10 06:59:56;;;;;;;4.72;3.40;;;;;;;;;;4919060;29;20040;-72
2023/05/10 07:02:23;;;;;;;4.13;2.72;;;;;;;;;;4921284;29;20103;-72
2023/05/10 07:04:49;;;;;;;5.35;3.08;;;;;;;;;;4902362;29;20510;-71
2023/05/10 07:07:15;;;;;;;4.57;3.33;;;;;;;;;;4912214;29;20059;-72
2023/05/10 07:09:42;;;;;;;4.47;2.90;;;;;;;;;;4901919;29;20074;-71
2023/05/10 07:12:08;;;;;;;4.53;3.40;;;;;;;;;;4919157;29;20044;-72
2023/05/10 07:14:34;;;;;;;4.57;3.22;;;;;;;;;;4902156;29;20068;-73
2023/05/10 07:17:00;;;;;;;4.22;3.40;;;;;;;;;;4886236;29;20083;-71
2023/05/10 07:19:26;;;;;;;6.32;3.38;;;;;;;;;;4901646;29;20043;-71
2023/05/10 07:21:52;;;;;;;6.40;3.20;;;;;;;;;;4912956;29;20040;-71
2023/05/10 07:24:18;;;;;;;4.38;3.58;;;;;;;;;;4900491;29;20096;-71
2023/05/10 07:26:45;;;;;;;6.05;4.38;;;;;;;;;;4902061;29;20396;-72
2023/05/10 07:29:11;;;;;;;6.43;4.75;;;;;;;;;;4901094;29;20048;-72
2023/05/10 07:31:37;;;;;;;7.78;4.90;;;;;;;;;;4901597;29;20047;-72
2023/05/10 07:34:04;;;;;;;6.72;4.70;;;;;;;;;;4885173;29;20040;-71
2023/05/10 07:36:30;;;;;;;6.57;4.78;;;;;;;;;;4901356;29;20412;-71
2023/05/10 07:38:57;;;;;;;5.88;4.70;;;;;;;;;;4917462;29;20500;-72
2023/05/10 07:41:23;;;;;;;6.93;4.70;;;;;;;;;;4901926;29;20531;-68
2023/05/10 07:43:49;;;;;;;8.60;4.90;;;;;;;;;;4886276;29;20051;-67
2023/05/10 07:46:15;;;;;;;8.63;4.97;;;;;;;;;;4901419;29;20480;-67
2023/05/10 07:48:41;;;;;;;6.40;4.60;;;;;;;;;;4886240;29;20044;-67
2023/05/10 07:51:09;;;;;;;9.43;5.30;;;;;;;;;;4885620;29;20048;-67
2023/05/10 07:53:35;;;;;;;6.88;4.43;;;;;;;;;;4901584;29;20062;-67
2023/05/10 07:56:20;;;;;;;5.75;4.38;;;;;;;;;;4917996;29;20071;-67
2023/05/10 07:58:46;;;;;;;6.18;4.50;;;;;;;;;;4901299;29;20079;-67
2023/05/10 08:01:12;;;;;;;5.97;4.63;;;;;;;;;;4901384;29;20040;-68
2023/05/10 08:03:38;;;;;;;8.02;5.15;;;;;;;;;;4885578;29;20106;-68
2023/05/10 08:06:04;;;;;;;8.70;5.18;;;12.50;99.90;;;;;;4901204;29;20054;-68
2023/05/10 08:08:30;;;;;;;8.45;5.32;;;;;;;;;;4901151;29;20134;-68
2023/05/10 08:10:56;;;;;;;7.03;5.47;;;;;;;;;;4885612;29;20127;-68
2023/05/10 08:13:23;;;;;;;9.00;6.15;;;;;;;;;;4901174;29;20040;-67
2023/05/10 08:15:49;;;;;;;9.63;5.55;;;;;;;;;;4916560;29;20534;-67
2023/05/10 08:18:15;;;;;;;9.25;5.93;;;;;;;;;;4916668;29;20099;-67
2023/05/10 08:20:41;;;;;;;10.15;5.90;;;;;;;;;;4884500;29;20044;-68
2023/05/10 08:23:07;;;;;;;9.48;5.45;;;;;;;;;;4916923;29;20048;-68
2023/05/10 08:25:33;;;;;;;7.45;4.97;;;;;;;;;;4916416;29;20036;-68
2023/05/10 08:27:59;;;;;;;6.00;4.60;;;;;;;;;;4917909;29;20519;-68
2023/05/10 08:30:25;;;;;;;9.05;4.75;;;;;;;;;;4885399;29;20055;-68
2023/05/10 08:32:53;;;;;;;11.10;5.97;;;13.00;99.90;;;;;;4900785;29;20050;-68
2023/05/10 08:35:19;;;;;;;10.68;5.20;;;;;;;;;;4885188;29;20044;-67
2023/05/10 08:37:45;;;;;;;7.25;4.95;;;;;;;;;;4900573;29;20063;-67
2023/05/10 08:40:12;;;;;;;13.60;6.00;;;;;;;;;;4899882;29;20040;-67
2023/05/10 08:42:41;;;;;;;8.52;5.03;;;13.30;99.90;;;;;;4883646;29;20480;-68
2023/05/10 08:45:08;;;;;;;11.60;5.38;;;13.20;99.90;;;;;;4900433;29;20040;-71
2023/05/10 08:47:37;;;;;;;8.68;5.53;;;13.40;99.90;;;;;;4900485;29;20135;-67
2023/05/10 08:50:04;;;;;;;11.13;7.05;;;;;;;;;;4900313;29;20112;-67
2023/05/10 08:52:31;;;;;;;9.00;6.28;;;;;;;;;;4900228;29;20080;-67
2023/05/10 08:54:57;;;;;;;10.10;5.63;;;14.30;99.90;;;;;;4883939;29;20087;-67
2023/05/10 08:57:23;;;;;;;13.45;7.55;;;;;;;;;;4899429;29;20075;-67
2023/05/10 08:59:49;;;;;;;12.20;6.97;;;13.40;99.90;;;;;;4899415;29;20048;-67
2023/05/10 09:02:15;;;;;;;11.85;7.55;;;;;;;;;;4900398;29;20043;-67
2023/05/10 09:04:41;;;;;;;13.95;7.68;;;;;;;;;;4900114;29;20122;-67
2023/05/10 09:07:07;;;;;;;12.13;7.72;;;14.50;99.90;;;;;;4900321;29;20083;-67
2023/05/10 09:09:34;;;;;;;11.32;7.57;;;13.40;99.90;;;;;;4900345;29;20060;-68
2023/05/10 09:12:00;;;;;;;13.60;7.68;;;;;;;;;;4900589;29;20052;-67
2023/05/10 09:14:26;;;;;;;13.98;8.32;;;13.80;99.90;;;;;;4884683;29;20055;-68
2023/05/10 09:16:54;;;;;;;14.15;7.30;;;;;;;;;;4900303;29;20040;-68
2023/05/10 09:19:20;;;;;;;20.02;8.40;;;;;;;;;;4869305;29;20117;-68
2023/05/10 09:21:46;;;;;;;13.45;9.23;;;14.30;99.90;;;;;;4869577;29;20108;-68
2023/05/10 09:24:12;;;;;;;25.50;9.95;;;13.20;99.90;;;;;;4869185;29;20527;-68
2023/05/10 09:26:48;;;;;;;34.17;11.13;;;;;;;;;;4884177;29;20044;-68
2023/05/10 09:29:15;;;;;;;33.42;8.88;;;;;;;;;;4899282;29;20048;-68
2023/05/10 09:31:46;;;;;;;55.13;12.88;;;13.80;99.90;;;;;;4904875;29;20428;-69
2023/05/10 09:34:16;;;;;;;13.48;7.88;;;13.60;99.90;;;;;;4899715;29;20044;-68
2023/05/10 09:36:53;;;;;;;11.80;7.25;;;;;;;;;;4899913;29;20052;-68
2023/05/10 09:39:19;;;;;;;12.15;7.53;;;;;;;;;;4899370;29;20051;-68
2023/05/10 09:41:45;;;;;;;11.13;7.05;;;;;;;;;;4899794;29;20081;-68
2023/05/10 09:44:12;;;;;;;11.43;7.57;;;;;;;;;;4900063;29;20044;-73
2023/05/10 09:46:38;;;;;;;10.82;6.85;;;;;;;;;;4899600;29;20063;-72
2023/05/10 09:49:05;;;;;;;8.75;6.40;;;13.70;99.90;;;;;;4898862;29;20048;-73
2023/05/10 09:51:32;;;;;;;8.93;6.45;;;;;;;;;;4898466;29;20412;-68
2023/05/10 09:54:11;;;;;;;10.75;6.55;;;;;;;;;;4883157;29;20503;-68
2023/05/10 09:56:38;;;;;;;10.32;6.88;;;14.50;99.90;;;;;;4880767;29;20037;-68
2023/05/10 09:59:05;;;;;;;10.20;6.53;;;13.80;99.90;;;;;;4911889;29;20052;-69
2023/05/10 10:01:31;;;;;;;9.65;6.75;;;;;;;;;;4896779;29;20039;-68
2023/05/10 10:03:58;;;;;;;9.30;6.80;;;;;;;;;;4927746;29;20044;-72
2023/05/10 10:06:25;;;;;;;11.27;6.68;;;;;;;;;;4903202;29;20080;-67
2023/05/10 10:08:51;;;;;;;13.80;7.47;;;13.80;99.90;;;;;;4897806;29;20056;-68
2023/05/10 10:11:17;;;;;;;13.23;7.00;;;;;;;;;;4908558;29;20056;-68
2023/05/10 10:13:43;;;;;;;10.30;6.90;;;;;;;;;;4899069;29;20052;-68
2023/05/10 10:16:09;;;;;;;11.68;7.60;;;;;;;;;;4899454;29;20047;-68
2023/05/10 10:18:38;;;;;;;10.13;7.07;;;14.20;99.90;;;;;;4911983;29;20149;-68
2023/05/10 10:21:10;;;;;;;12.43;8.57;;;;;;;;;;4908125;29;20048;-68
2023/05/10 10:23:36;;;;;;;;;;;14.30;99.90;;;;;;4900248;29;20099;-68
2023/05/10 10:26:04;;;;;;;13.18;7.55;;;14.20;99.90;;;;;;4908095;29;20344;-68
2023/05/10 10:28:57;;;;;;;11.30;7.80;;;14.10;99.90;;;;;;4899950;29;20040;-68
2023/05/10 10:31:40;;;;;;;12.23;7.55;;;14.20;99.90;;;;;;4899467;29;20037;-66
2023/05/10 10:34:06;;;;;;;;;;;;;;;;;;4899852;29;20095;-71
2023/05/10 10:36:39;;;;;;;11.00;6.60;;;14.60;99.90;;;;;;4899698;29;19919;-70
2023/05/10 10:39:09;;;;;;;12.25;6.93;;;14.50;99.90;;;;;;4883977;29;20044;-69
2023/05/10 10:41:37;;;;;;;11.63;6.40;;;14.70;99.90;;;;;;4912310;29;20040;-70
2023/05/10 10:44:29;;;;;;;8.50;6.85;;;15.50;99.90;;;;;;4899850;29;20106;-70
2023/05/10 10:47:08;;;;;;;13.57;7.32;;;14.50;99.90;;;;;;4902180;29;20494;-69
2023/05/10 10:49:42;;;;;;;12.20;7.00;;;14.80;99.90;;;;;;4902326;29;20060;-70
2023/05/10 10:52:15;;;;;;;10.32;6.88;;;;;;;;;;4887217;29;20106;-70
2023/05/10 10:54:42;;;;;;;8.82;6.80;;;;;;;;;;4902428;29;20123;-70
2023/05/10 10:57:13;;;;;;;9.43;6.43;;;;;;;;;;4902671;29;20048;-70
2023/05/10 10:59:45;;;;;;;11.90;6.60;;;15.00;99.90;;;;;;4886971;29;20043;-70
2023/05/10 11:02:35;;;;;;;9.77;6.80;;;14.60;99.90;;;;;;4912166;29;20040;-70
2023/05/10 11:05:21;;;;;;;10.68;7.30;;;;;;;;;;4886575;29;20055;-70
2023/05/10 11:07:57;;;;;;;11.55;6.78;;;14.90;99.90;;;;;;4900551;29;20063;-70
2023/05/10 11:10:24;;;;;;;11.85;6.65;;;;;;;;;;4886776;29;20044;-70
2023/05/10 11:13:05;;;;;;;9.45;6.03;;;14.20;99.90;;;;;;4901904;29;20083;-69
2023/05/10 11:15:35;;;;;;;9.02;5.70;;;15.80;99.90;;;;;;4909327;29;20048;-70
2023/05/10 11:18:22;;;;;;;8.82;6.00;;;15.40;99.90;;;;;;4919891;29;20370;-69
2023/05/10 11:20:59;;;;;;;8.02;5.97;;;15.00;99.90;;;;;;4899891;29;20090;-69
2023/05/10 11:23:47;;;;;;;12.57;6.57;;;15.10;99.90;;;;;;4901638;29;20072;-70
2023/05/10 11:26:13;;;;;;;8.98;5.82;;;15.20;99.90;;;;;;4901653;29;20488;-70
2023/05/10 11:28:43;;;;;;;8.68;6.00;;;;;;;;;;4869656;29;20095;-70
2023/05/10 11:31:10;;;;;;;7.55;6.18;;;;;;;;;;4900344;29;20123;-70
2023/05/10 11:33:50;;;;;;;10.45;6.18;;;15.90;99.90;;;;;;4900239;29;20119;-69
2023/05/10 11:36:35;;;;;;;8.95;6.90;;;15.30;99.90;;;;;;4897782;29;20050;-69
2023/05/10 11:39:02;;;;;;;7.88;6.15;;;;;;;;;;4898037;29;20048;-69
2023/05/10 11:41:29;;;;;;;9.18;6.20;;;;;;;;;;4900477;29;20044;-70
2023/05/10 11:43:56;;;;;;;9.25;5.68;;;15.30;99.90;;;;;;4900129;29;20055;-69
2023/05/10 11:46:24;;;;;;;13.25;6.60;;;16.00;99.90;;;;;;4901865;29;20054;-67
2023/05/10 11:48:52;;;;;;;7.03;5.30;;;15.40;99.90;;;;;;4886051;29;20190;-70
2023/05/10 11:51:22;;;;;;;8.32;6.55;;;;;;;;;;4902030;29;20131;-69
2023/05/10 11:53:53;;;;;;;10.27;7.13;;;15.20;99.90;;;;;;4901677;29;20127;-69
2023/05/10 11:56:20;;;;;;;9.43;6.75;;;;;;;;;;4901015;29;20084;-69
2023/05/10 11:58:56;;;;;;;11.80;7.85;;;15.20;99.90;;;;;;4903709;29;20051;-69
2023/05/10 12:01:22;;;;;;;9.90;7.72;;;15.90;99.90;;;;;;4917172;29;20123;-69
2023/05/10 12:03:50;;;;;;;11.57;7.00;;;15.40;99.90;;;;;;4895708;29;20087;-69
2023/05/10 12:06:16;;;;;;;11.27;6.72;;;15.40;99.90;;;;;;4885473;29;20048;-69
2023/05/10 12:08:46;;;;;;;11.90;8.13;;;15.60;99.90;;;;;;4885264;29;20058;-69
2023/05/10 12:11:14;;;;;;;10.43;7.38;;;;;;;;;;4901416;29;20047;-69
2023/05/10 12:13:41;;;;;;;11.95;8.32;;;16.00;99.90;;;;;;4901247;29;20044;-69
2023/05/10 12:16:15;;;;;;;11.57;8.07;;;16.00;99.90;;;;;;4899976;29;20071;-69
2023/05/10 12:18:42;;;;;;;12.13;7.97;;;;;;;;;;4900353;29;20052;-69
2023/05/10 12:21:11;;;;;;;10.77;7.72;;;16.60;99.90;;;;;;4900755;29;20173;-69
2023/05/10 12:23:37;;;;;;;11.50;8.32;;;;;;;;;;4900770;29;20119;-69
2023/05/10 12:26:04;;;;;;;9.02;5.95;;;16.20;99.90;;;;;;4900851;29;20051;-70
2023/05/10 12:28:31;;;;;;;12.10;8.40;;;16.00;99.90;;;;;;4900773;29;20040;-69
2023/05/10 12:30:58;;;;;;;10.95;8.10;;;15.90;99.90;;;;;;4885537;29;20503;-69
2023/05/10 12:33:24;;;;;;;8.48;6.30;;;15.00;99.90;;;;;;4900770;29;20059;-69
2023/05/10 12:35:52;;;;;;;10.20;7.15;;;15.20;99.90;;;;;;4900485;29;20047;-69
2023/05/10 12:38:33;;;;;;;9.07;7.03;;;;;;;;;;4866281;29;20044;-69
2023/05/10 12:41:00;;;;;;;10.93;7.70;;;;;;;;;;4882150;29;20131;-69
2023/05/10 12:43:26;;;;;;;12.75;6.88;;;;;;;;;;4892471;29;20488;-69
2023/05/10 12:45:52;;;;;;;12.65;7.05;;;;;;;;;;4900596;29;20044;-69
2023/05/10 12:48:19;;;;;;;8.40;4.78;;;;;;;;;;4900657;29;20072;-69
2023/05/10 12:50:45;;;;;;;8.13;4.28;;;;;;;;;;4900743;29;20099;-69
2023/05/10 12:53:13;;;;;;;8.13;4.72;;;16.00;99.90;;;;;;4902799;29;20072;-69
2023/05/10 12:55:39;;;;;;;7.70;5.60;;;;;;;;;;4919401;29;20052;-69
2023/05/10 12:58:05;;;;;;;8.18;4.10;;;16.00;99.90;;;;;;4910938;29;20044;-69
2023/05/10 13:00:31;;;;;;;10.00;5.60;;;;;;;;;;4884974;29;20051;-69
2023/05/10 13:02:57;;;;;;;8.75;5.05;;;;;;;;;;4900194;29;20048;-69
2023/05/10 13:05:23;;;;;;;9.20;4.97;;;;;;;;;;4884831;29;20040;-69
2023/05/10 13:07:49;;;;;;;8.20;4.80;;;;;;;;;;4899485;29;20139;-69
2023/05/10 13:10:16;;;;;;;9.02;5.50;;;16.10;99.90;;;;;;4900235;29;20473;-69
2023/05/10 13:12:42;;;;;;;8.05;5.18;;;;;;;;;;4884383;29;20512;-69
2023/05/10 13:15:08;;;;;;;8.88;5.95;;;;;;;;;;4884592;29;20059;-69
2023/05/10 13:17:34;;;;;;;8.30;5.10;;;;;;;;;;4899887;29;20573;-69
2023/05/10 13:20:00;;;;;;;9.07;5.10;;;;;;;;;;4900145;29;20040;-69
2023/05/10 13:22:26;;;;;;;7.72;4.57;;;;;;;;;;4899979;29;20449;-69
2023/05/10 13:24:52;;;;;;;6.80;5.03;;;;;;;;;;4884680;29;20114;-69
2023/05/10 13:27:18;;;;;;;9.55;5.35;;;;;;;;;;4899897;29;20048;-69
2023/05/10 13:29:44;;;;;;;9.38;6.10;;;;;;;;;;4884478;29;20050;-69
2023/05/10 13:32:10;;;;;;;7.03;4.80;;;14.90;99.90;;;;;;4884278;29;20047;-69
2023/05/10 13:34:36;;;;;;;7.82;5.20;;;16.90;99.90;;;;;;4900343;29;20107;-69
2023/05/10 13:37:02;;;;;;;16.65;7.63;;;;;;;;;;4899541;29;20468;-69
2023/05/10 13:39:33;;;;;;;10.80;7.18;;;;;;;;;;4899609;29;20437;-69
2023/05/10 13:41:59;;;;;;;8.75;6.18;;;;;;;;;;4899868;29;20047;-69
2023/05/10 13:44:25;;;;;;;8.90;6.70;;;;;;;;;;4899826;29;20040;-69
2023/05/10 13:46:51;;;;;;;11.23;7.95;;;;;;;;;;4884503;29;20111;-69
2023/05/10 13:49:17;;;;;;;7.35;5.80;;;;;;;;;;4899628;29;20076;-70
2023/05/10 13:51:44;;;;;;;11.70;5.57;;;;;;;;;;4899701;29;20044;-71
2023/05/10 13:54:09;;;;;;;6.93;5.65;;;16.30;99.90;;;;;;4899705;29;20043;-69
2023/05/10 13:56:35;;;;;;;12.88;7.72;;;;;;;;;;4868581;29;20400;-69
2023/05/10 13:59:02;;;;;;;8.70;6.57;;;;;;;;;;4899536;29;20052;-69
2023/05/10 14:01:28;;;;;;;9.15;7.15;;;;;;;;;;4899813;29;20044;-69
2023/05/10 14:03:53;;;;;;;7.13;6.07;;;15.30;99.90;;;;;;4884286;29;20044;-69
2023/05/10 14:06:20;;;;;;;9.20;6.70;;;;;;;;;;4899689;29;20044;-69
2023/05/10 14:08:46;;;;;;;8.02;6.38;;;;;;;;;;4915080;29;20070;-69
2023/05/10 14:11:12;;;;;;;6.57;4.70;;;;;;;;;;4899314;29;20051;-69
2023/05/10 14:13:38;;;;;;;5.45;4.47;;;;;;;;;;4899605;29;20040;-69
2023/05/10 14:16:04;;;;;;;5.55;4.50;;;16.80;99.90;;;;;;4899764;29;20048;-69